createdAt,value
2022-08-23T00:00:14.917Z,17.89
2022-08-23T00:03:19.461Z,17.86
2022-08-23T00:06:22.825Z,17.85
2022-08-23T00:09:26.525Z,17.83
2022-08-23T00:12:28.366Z,17.83
2022-08-23T00:15:30.049Z,17.82
2022-08-23T00:18:32.170Z,17.83
2022-08-23T00:21:37.287Z,17.85
2022-08-23T00:24:41.042Z,17.89
2022-08-23T00:27:42.733Z,17.91
2022-08-23T00:30:44.332Z,17.93
2022-08-23T00:33:46.074Z,17.95
2022-08-23T00:36:49.357Z,17.95
2022-08-23T00:39:51.932Z,17.96
2022-08-23T00:43:20.289Z,17.95
2022-08-23T00:46:51.264Z,17.96
2022-08-23T00:50:02.708Z,17.97
2022-08-23T00:53:28.241Z,17.98
2022-08-23T00:56:33.767Z,17.98
2022-08-23T00:59:35.517Z,17.99
2022-08-23T01:02:37.722Z,17.99
2022-08-23T01:06:18.280Z,18.01
2022-08-23T01:09:21.515Z,17.99
2022-08-23T01:12:35.612Z,17.98
2022-08-23T01:15:45.552Z,17.97
2022-08-23T01:18:48.245Z,17.96
2022-08-23T01:22:20.009Z,17.97
2022-08-23T01:25:23.615Z,17.97
2022-08-23T01:28:25.756Z,17.97
2022-08-23T01:31:28.538Z,17.99
2022-08-23T01:34:30.148Z,17.99
2022-08-23T01:37:36.777Z,17.98
2022-08-23T01:40:39.697Z,17.98
2022-08-23T01:43:41.268Z,17.97
2022-08-23T01:46:46.746Z,17.97
2022-08-23T01:49:48.322Z,17.94
2022-08-23T01:52:50.058Z,17.92
2022-08-23T01:55:51.820Z,17.93
2022-08-23T01:58:53.705Z,17.94
2022-08-23T02:01:55.356Z,17.93
2022-08-23T02:04:57.046Z,17.93
2022-08-23T02:08:19.071Z,17.93
2022-08-23T02:11:23.193Z,17.90
2022-08-23T02:14:24.848Z,17.88
2022-08-23T02:17:26.514Z,17.83
2022-08-23T02:20:28.256Z,17.82
2022-08-23T02:23:29.898Z,17.81
2022-08-23T02:26:31.757Z,17.81
2022-08-23T02:29:39.074Z,17.80
2022-08-23T02:32:42.247Z,17.78
2022-08-23T02:35:44.348Z,17.75
2022-08-23T02:38:45.910Z,17.73
2022-08-23T02:41:47.966Z,17.71
2022-08-23T02:44:49.568Z,17.68
2022-08-23T02:47:51.408Z,17.63
2022-08-23T02:50:53.030Z,17.63
2022-08-23T02:53:54.649Z,17.58
2022-08-23T02:56:56.272Z,17.57
2022-08-23T02:59:58.133Z,17.54
2022-08-23T03:02:59.945Z,17.54
2022-08-23T03:06:25.703Z,17.54
2022-08-23T03:09:24.001Z,17.53
2022-08-23T03:12:27.177Z,17.51
2022-08-23T03:15:28.898Z,17.47
2022-08-23T03:18:30.445Z,17.43
2022-08-23T03:21:32.552Z,17.40
2022-08-23T03:24:34.206Z,17.38
2022-08-23T03:27:43.684Z,17.36
2022-08-23T03:30:46.656Z,17.33
2022-08-23T03:33:48.251Z,17.33
2022-08-23T03:36:49.842Z,17.31
2022-08-23T03:39:52.332Z,17.28
2022-08-23T03:42:53.925Z,17.25
2022-08-23T03:45:55.873Z,17.22
2022-08-23T03:49:00.583Z,17.21
2022-08-23T03:52:02.319Z,17.17
2022-08-23T03:55:05.093Z,17.16
2022-08-23T03:58:06.685Z,17.15
2022-08-23T04:01:08.309Z,17.13
2022-08-23T04:04:10.731Z,17.12
2022-08-23T04:07:12.405Z,17.10
2022-08-23T04:10:15.630Z,17.09
2022-08-23T04:13:17.458Z,17.08
2022-08-23T04:16:19.111Z,17.06
2022-08-23T04:19:21.193Z,17.05
2022-08-23T04:22:25.094Z,17.03
2022-08-23T04:25:34.492Z,16.99
2022-08-23T04:28:37.844Z,16.96
2022-08-23T04:31:39.443Z,16.92
2022-08-23T04:34:45.496Z,16.87
2022-08-23T04:37:47.329Z,16.84
2022-08-23T04:41:11.181Z,16.82
2022-08-23T04:44:14.832Z,16.79
2022-08-23T04:50:18.225Z,16.77
2022-08-23T04:53:20.873Z,16.74
2022-08-23T04:56:23.533Z,16.74
2022-08-23T04:59:25.127Z,16.74
2022-08-23T05:02:27.824Z,16.73
2022-08-23T05:05:29.411Z,16.71
2022-08-23T05:08:32.124Z,16.70
2022-08-23T05:11:33.788Z,16.69
2022-08-23T05:14:35.462Z,16.67
2022-08-23T05:17:37.658Z,16.64
2022-08-23T05:20:39.458Z,16.70
2022-08-23T05:23:41.148Z,16.71
2022-08-23T05:26:43.561Z,16.70
2022-08-23T05:29:47.232Z,16.69
2022-08-23T05:32:48.893Z,16.69
2022-08-23T05:35:50.696Z,16.71
2022-08-23T05:38:53.482Z,16.73
2022-08-23T05:41:55.104Z,16.73
2022-08-23T05:44:57.411Z,16.74
2022-08-23T05:47:59.127Z,16.73
2022-08-23T05:51:16.365Z,16.73
2022-08-23T05:54:17.956Z,16.75
2022-08-23T05:57:19.512Z,16.83
2022-08-23T06:00:21.667Z,16.91
2022-08-23T06:03:39.043Z,16.96
2022-08-23T06:06:42.913Z,17.00
2022-08-23T06:09:44.472Z,17.03
2022-08-23T06:12:46.188Z,17.06
2022-08-23T06:15:47.948Z,17.12
2022-08-23T06:18:50.995Z,17.15
2022-08-23T06:21:52.884Z,17.20
2022-08-23T06:24:54.615Z,17.25
2022-08-23T06:27:56.256Z,17.31
2022-08-23T06:30:58.396Z,17.36
2022-08-23T06:34:00.028Z,17.42
2022-08-23T06:37:14.450Z,17.52
2022-08-23T06:40:16.245Z,17.61
2022-08-23T06:43:20.692Z,17.69
2022-08-23T06:46:28.134Z,17.76
2022-08-23T06:49:29.875Z,17.84
2022-08-23T06:52:31.588Z,17.90
2022-08-23T06:55:33.574Z,17.96
2022-08-23T06:58:35.273Z,18.01
2022-08-23T07:01:46.439Z,18.08
2022-08-23T07:04:54.121Z,18.13
2022-08-23T07:07:55.878Z,18.20
2022-08-23T07:10:57.532Z,18.29
2022-08-23T07:14:05.728Z,18.32
2022-08-23T07:17:09.648Z,18.36
2022-08-23T07:20:11.509Z,18.37
2022-08-23T07:23:13.062Z,18.40
2022-08-23T07:26:16.633Z,18.45
2022-08-23T07:29:20.281Z,18.49
2022-08-23T07:32:21.858Z,18.55
2022-08-23T07:35:23.809Z,18.60
2022-08-23T07:38:25.384Z,18.62
2022-08-23T07:41:32.792Z,18.67
2022-08-23T07:44:35.097Z,18.76
2022-08-23T07:47:36.739Z,18.85
2022-08-23T07:50:40.136Z,18.99
2022-08-23T07:53:56.340Z,19.11
2022-08-23T07:56:58.069Z,19.23
2022-08-23T07:59:59.641Z,19.32
2022-08-23T08:03:01.296Z,19.44
2022-08-23T08:06:08.155Z,19.57
2022-08-23T08:09:10.673Z,19.66
2022-08-23T08:12:12.333Z,19.74
2022-08-23T08:15:14.121Z,19.83
2022-08-23T08:18:15.784Z,19.90
2022-08-23T08:21:18.085Z,19.97
2022-08-23T08:24:19.699Z,20.05
2022-08-23T08:27:21.827Z,20.11
2022-08-23T08:30:23.465Z,20.16
2022-08-23T08:33:27.530Z,20.24
2022-08-23T08:36:44.057Z,20.33
2022-08-23T08:39:46.201Z,20.40
2022-08-23T08:42:47.816Z,20.46
2022-08-23T08:46:18.997Z,20.54
2022-08-23T08:49:33.971Z,20.59
2022-08-23T08:52:38.131Z,20.69
2022-08-23T08:55:45.054Z,20.79
2022-08-23T08:58:52.149Z,20.89
2022-08-23T09:01:53.895Z,20.97
2022-08-23T09:04:55.618Z,21.06
2022-08-23T09:08:03.477Z,21.16
2022-08-23T09:11:30.382Z,21.28
2022-08-23T09:14:35.021Z,21.40
2022-08-23T09:17:48.741Z,21.50
2022-08-23T09:20:54.325Z,21.58
2022-08-23T09:24:00.361Z,21.65
2022-08-23T09:27:03.871Z,21.72
2022-08-23T09:30:06.712Z,21.81
2022-08-23T09:33:17.714Z,21.92
2022-08-23T09:36:23.947Z,22.05
2022-08-23T09:39:33.349Z,22.19
2022-08-23T09:42:37.796Z,22.36
2022-08-23T09:45:51.018Z,22.52
2022-08-23T09:48:55.276Z,22.72
2022-08-23T09:52:01.177Z,22.90
2022-08-23T09:55:08.684Z,23.01
2022-08-23T09:58:18.675Z,23.12
2022-08-23T10:01:28.888Z,23.24
2022-08-23T10:04:58.477Z,23.41
2022-08-23T10:08:01.765Z,23.51
2022-08-23T10:11:24.661Z,23.63
2022-08-23T10:14:30.706Z,23.74
2022-08-23T10:17:40.677Z,23.89
2022-08-23T10:20:51.424Z,24.02
2022-08-23T10:24:14.989Z,24.18
2022-08-23T10:27:46.974Z,24.37
2022-08-23T10:31:02.257Z,24.50
2022-08-23T10:34:03.856Z,24.61
2022-08-23T10:37:53.105Z,24.73
2022-08-23T10:41:33.088Z,24.91
2022-08-23T10:44:42.443Z,25.07
2022-08-23T10:47:52.217Z,25.28
2022-08-23T10:51:04.713Z,25.50
2022-08-23T10:54:16.349Z,25.58
2022-08-23T10:57:21.798Z,25.61
2022-08-23T11:00:26.942Z,25.65
2022-08-23T11:03:31.019Z,25.66
2022-08-23T11:06:35.597Z,25.69
2022-08-23T11:10:09.980Z,25.69
2022-08-23T11:13:18.479Z,25.72
2022-08-23T11:16:31.343Z,25.82
2022-08-23T11:19:53.399Z,26.01
2022-08-23T11:22:57.828Z,26.15
2022-08-23T11:25:59.638Z,26.26
2022-08-23T11:29:07.277Z,26.32
2022-08-23T11:32:11.705Z,26.34
2022-08-23T11:35:43.105Z,26.34
2022-08-23T11:38:48.289Z,26.29
2022-08-23T11:41:55.879Z,26.29
2022-08-23T11:44:57.695Z,26.42
2022-08-23T11:48:22.761Z,26.65
2022-08-23T11:52:19.319Z,26.85
2022-08-23T11:55:20.935Z,26.95
2022-08-23T11:58:46.509Z,26.94
2022-08-23T12:01:51.065Z,26.96
2022-08-23T12:04:55.643Z,26.96
2022-08-23T12:08:03.513Z,26.97
2022-08-23T12:11:10.291Z,27.02
2022-08-23T12:14:32.198Z,27.08
2022-08-23T12:17:40.273Z,27.07
2022-08-23T12:20:48.576Z,27.05
2022-08-23T12:24:01.349Z,27.05
2022-08-23T12:27:14.033Z,27.10
2022-08-23T12:30:42.774Z,27.18
2022-08-23T12:34:12.544Z,27.19
2022-08-23T12:37:25.768Z,27.18
2022-08-23T12:40:42.624Z,27.20
2022-08-23T12:44:09.954Z,27.19
2022-08-23T12:47:20.429Z,27.30
2022-08-23T12:50:33.090Z,27.47
2022-08-23T12:53:36.844Z,27.59
2022-08-23T12:56:40.746Z,27.72
2022-08-23T12:59:50.376Z,27.93
2022-08-23T13:03:16.036Z,27.97
2022-08-23T13:06:25.215Z,28.02
2022-08-23T13:09:29.290Z,28.16
2022-08-23T13:12:31.379Z,28.20
2022-08-23T13:15:48.322Z,28.17
2022-08-23T13:18:50.092Z,28.15
2022-08-23T13:22:25.421Z,28.11
2022-08-23T13:25:39.714Z,28.13
2022-08-23T13:28:41.382Z,28.15
2022-08-23T13:31:59.266Z,28.23
2022-08-23T13:35:22.626Z,28.29
2022-08-23T13:38:32.283Z,28.23
2022-08-23T13:41:38.966Z,28.15
2022-08-23T13:44:41.028Z,28.23
2022-08-23T13:47:52.059Z,28.34
2022-08-23T13:50:53.820Z,28.42
2022-08-23T13:53:57.522Z,28.51
2022-08-23T13:57:13.680Z,28.57
2022-08-23T14:00:19.498Z,28.53
2022-08-23T14:03:21.553Z,28.49
2022-08-23T14:06:24.091Z,28.42
2022-08-23T14:09:25.800Z,28.31
2022-08-23T14:12:30.526Z,28.20
2022-08-23T14:22:17.814Z,28.25
2022-08-23T14:25:19.607Z,28.23
2022-08-23T14:28:24.353Z,28.31
2022-08-23T14:31:26.029Z,28.36
2022-08-23T14:34:29.156Z,28.29
2022-08-23T14:40:57.737Z,28.11
2022-08-23T14:43:59.880Z,28.11
2022-08-23T14:47:01.640Z,28.15
2022-08-23T14:50:07.269Z,28.18
2022-08-23T14:53:10.130Z,28.17
2022-08-23T14:56:21.244Z,28.25
2022-08-23T14:59:23.425Z,28.23
2022-08-23T15:02:26.820Z,28.14
2022-08-23T15:05:28.525Z,28.06
2022-08-23T15:08:30.247Z,28.01
2022-08-23T15:14:53.948Z,27.91
2022-08-23T15:18:00.982Z,27.88
2022-08-23T15:21:03.007Z,27.84
2022-08-23T15:24:05.426Z,27.82
2022-08-23T15:27:08.078Z,27.80
2022-08-23T15:30:11.827Z,27.75
2022-08-23T15:33:14.034Z,27.70
2022-08-23T15:36:16.671Z,27.65
2022-08-23T15:39:18.490Z,27.57
2022-08-23T15:42:20.761Z,27.53
2022-08-23T15:45:22.738Z,27.51
2022-08-23T15:48:37.081Z,27.49
2022-08-23T15:51:39.663Z,27.44
2022-08-23T15:54:41.435Z,27.41
2022-08-23T15:57:48.906Z,27.40
2022-08-23T16:00:52.117Z,27.47
2022-08-23T16:03:53.826Z,27.43
2022-08-23T16:06:55.586Z,27.37
2022-08-23T16:09:59.705Z,27.35
2022-08-23T16:13:01.675Z,27.29
2022-08-23T16:16:03.698Z,27.26
2022-08-23T16:19:05.988Z,27.25
2022-08-23T16:22:07.688Z,27.20
2022-08-23T16:25:09.764Z,27.16
2022-08-23T16:28:11.316Z,27.14
2022-08-23T16:31:13.690Z,27.10
2022-08-23T16:34:20.191Z,27.06
2022-08-23T16:37:21.827Z,26.99
2022-08-23T16:40:23.705Z,26.94
2022-08-23T16:43:25.296Z,26.89
2022-08-23T16:46:28.917Z,26.82
2022-08-23T16:49:33.533Z,26.72
2022-08-23T16:52:36.038Z,26.64
2022-08-23T16:55:39.982Z,26.57
2022-08-23T16:58:42.175Z,26.48
2022-08-23T17:02:01.135Z,26.42
2022-08-23T17:05:16.578Z,26.39
2022-08-23T17:08:18.963Z,26.35
2022-08-23T17:11:20.817Z,26.33
2022-08-23T17:14:24.171Z,26.29
2022-08-23T17:17:25.960Z,26.23
2022-08-23T17:20:29.973Z,26.19
2022-08-23T17:23:31.856Z,26.13
2022-08-23T17:26:35.372Z,26.07
2022-08-23T17:29:37.471Z,26.01
2022-08-23T17:32:39.591Z,25.95
2022-08-23T17:35:41.396Z,25.89
2022-08-23T17:38:42.951Z,25.80
2022-08-23T17:41:45.692Z,25.74
2022-08-23T17:44:47.525Z,25.67
2022-08-23T17:47:49.812Z,25.59
2022-08-23T17:50:51.473Z,25.51
2022-08-23T17:53:53.180Z,25.44
2022-08-23T17:56:54.839Z,25.37
2022-08-23T17:59:57.190Z,25.30
2022-08-23T18:02:59.233Z,25.23
2022-08-23T18:06:01.483Z,25.16
2022-08-23T18:09:18.665Z,25.09
2022-08-23T18:12:20.348Z,25.05
2022-08-23T18:15:22.056Z,24.97
2022-08-23T18:18:23.653Z,24.91
2022-08-23T18:21:26.243Z,24.84
2022-08-23T18:24:27.954Z,24.77
2022-08-23T18:27:48.393Z,24.72
2022-08-23T18:30:54.674Z,24.64
2022-08-23T18:34:00.316Z,24.57
2022-08-23T18:37:02.525Z,24.47
2022-08-23T18:40:09.750Z,24.41
2022-08-23T18:43:16.990Z,24.33
2022-08-23T18:46:18.956Z,24.25
2022-08-23T18:49:20.549Z,24.16
2022-08-23T18:52:22.209Z,24.06
2022-08-23T18:55:23.976Z,23.99
2022-08-23T18:58:25.739Z,23.92
2022-08-23T19:01:34.480Z,23.82
2022-08-23T19:04:36.816Z,23.72
2022-08-23T19:07:38.621Z,23.61
2022-08-23T19:10:42.632Z,23.51
2022-08-23T19:13:44.520Z,23.42
2022-08-23T19:16:48.770Z,23.33
2022-08-23T19:19:50.754Z,23.22
2022-08-23T19:22:54.240Z,23.15
2022-08-23T19:25:56.254Z,23.08
2022-08-23T19:28:59.945Z,22.99
2022-08-23T19:32:04.097Z,22.89
2022-08-23T19:35:10.394Z,22.80
2022-08-23T19:38:14.370Z,22.71
2022-08-23T19:41:16.087Z,22.64
2022-08-23T19:44:17.956Z,22.57
2022-08-23T19:47:22.202Z,22.51
2022-08-23T19:50:26.793Z,22.44
2022-08-23T19:53:28.409Z,22.38
2022-08-23T19:56:43.541Z,22.33
2022-08-23T19:59:46.468Z,22.23
2022-08-23T20:02:48.568Z,22.16
2022-08-23T20:05:50.330Z,22.11
2022-08-23T20:08:52.328Z,22.04
2022-08-23T20:11:53.996Z,21.97
2022-08-23T20:14:56.048Z,21.91
2022-08-23T20:17:58.579Z,21.87
2022-08-23T20:21:00.588Z,21.84
2022-08-23T20:24:04.364Z,21.81
2022-08-23T20:27:07.076Z,21.77
2022-08-23T20:30:14.428Z,21.73
2022-08-23T20:33:16.240Z,21.68
2022-08-23T20:36:20.321Z,21.62
2022-08-23T20:39:24.268Z,21.54
2022-08-23T20:42:26.361Z,21.50
2022-08-23T20:45:28.069Z,21.45
2022-08-23T20:48:31.356Z,21.42
2022-08-23T20:51:36.638Z,21.38
2022-08-23T20:54:39.288Z,21.34
2022-08-23T20:57:41.025Z,21.31
2022-08-23T21:00:42.930Z,21.29
2022-08-23T21:03:44.587Z,21.26
2022-08-23T21:06:48.936Z,21.22
2022-08-23T21:09:50.955Z,21.19
2022-08-23T21:12:52.909Z,21.16
2022-08-23T21:15:54.615Z,21.12
2022-08-23T21:18:56.912Z,21.06
2022-08-23T21:21:58.553Z,21.01
2022-08-23T21:25:00.211Z,20.96
2022-08-23T21:28:04.402Z,20.91
2022-08-23T21:31:09.236Z,20.86
2022-08-23T21:34:11.907Z,20.82
2022-08-23T21:37:13.484Z,20.77
2022-08-23T21:40:15.100Z,20.71
2022-08-23T21:43:16.981Z,20.69
2022-08-23T21:46:18.818Z,20.64
2022-08-23T21:49:23.768Z,20.61
2022-08-23T21:52:25.721Z,20.57
2022-08-23T21:55:36.257Z,20.54
2022-08-23T21:58:39.685Z,20.53
2022-08-23T22:01:42.822Z,20.49
2022-08-23T22:04:44.700Z,20.43
2022-08-23T22:07:47.166Z,20.39
2022-08-23T22:10:57.732Z,20.35
2022-08-23T22:14:00.475Z,20.32
2022-08-23T22:17:02.101Z,20.51
2022-08-23T22:20:06.768Z,20.44
2022-08-23T22:23:08.393Z,20.39
2022-08-23T22:26:11.704Z,20.33
2022-08-23T22:29:14.121Z,20.27
2022-08-23T22:32:15.876Z,20.21
2022-08-23T22:35:18.461Z,20.15
2022-08-23T22:38:20.404Z,20.08
2022-08-23T22:41:27.300Z,20.04
2022-08-23T22:44:29.102Z,19.98
2022-08-23T22:47:31.101Z,19.94
2022-08-23T22:50:32.652Z,19.89
2022-08-23T22:53:37.080Z,19.85
2022-08-23T22:56:48.146Z,19.82
2022-08-23T22:59:49.703Z,19.78
2022-08-23T23:02:52.042Z,19.78
2022-08-23T23:05:53.801Z,19.77
2022-08-23T23:08:56.512Z,19.77
2022-08-23T23:11:58.108Z,19.75
2022-08-23T23:14:59.817Z,19.74
2022-08-23T23:18:01.591Z,19.72
2022-08-23T23:21:05.074Z,19.71
2022-08-23T23:24:07.381Z,19.70
2022-08-23T23:27:09.860Z,19.68
2022-08-23T23:30:11.909Z,19.66
2022-08-23T23:33:14.763Z,19.65
2022-08-23T23:36:16.600Z,19.63
2022-08-23T23:39:19.237Z,19.60
2022-08-23T23:42:20.899Z,19.57
2022-08-23T23:45:23.073Z,19.53
2022-08-23T23:48:24.816Z,19.51
2022-08-23T23:51:30.812Z,19.46
2022-08-23T23:54:35.512Z,19.43
2022-08-23T23:57:37.692Z,19.39
